Time;durP1;ratioP1;P1;durP2;ratioP2;P2;SDS_P1;SDS_P2;PMS_P1;PMS_P2;Temp;Humidity;BMP_temperature;BMP_pressure;BME280_temperature;BME280_humidity;BME280_pressure;Samples;Min_cycle;Max_cycle;Signal;HPM_P1;HPM_P2
2022/07/05 00:54:22;;;;;;;15.75;2.15;;;;;;;21.02;71.25;94452.56;5339397;23;20046;-89
2022/07/05 00:56:48;;;;;;;22.05;2.42;;;;;;;21.07;71.14;94456.88;4965080;28;20046;-89
2022/07/05 00:59:13;;;;;;;16.38;2.30;;;;;;;20.84;71.45;94459.19;4964930;28;20125;-89
2022/07/05 01:01:39;;;;;;;14.57;2.22;;;;;;;20.86;72.36;94454.31;4980447;28;20108;-89
2022/07/05 01:04:04;;;;;;;14.55;2.40;;;;;;;20.98;72.32;94459.66;4977321;28;20034;-89
2022/07/05 01:06:31;;;;;;;9.07;1.90;;;;;;;20.42;78.35;94460.03;4961432;28;20087;-88
2022/07/05 01:08:57;;;;;;;10.95;1.95;;;;;;;20.92;70.15;94460.97;4953941;28;20041;-88
2022/07/05 01:11:22;;;;;;;11.07;2.05;;;;;;;21.07;74.27;94461.41;4980938;28;20034;-88
2022/07/05 01:13:48;;;;;;;11.50;1.85;;;;;;;21.00;73.78;94462.75;4980542;28;20034;-88
2022/07/05 01:16:13;;;;;;;16.38;2.13;;;;;;;20.98;74.56;94459.66;4980883;28;20030;-89
2022/07/05 01:18:39;;;;;;;15.05;2.53;;;;;;;20.88;71.83;94460.88;4964762;28;20059;-89
2022/07/05 01:21:08;;;;;;;9.80;1.83;;;;;;;20.87;72.13;94456.66;4998004;28;20188;-88
2022/07/05 01:23:33;;;;;;;12.00;1.67;;;;;;;20.98;72.01;94464.97;4980394;28;20112;-89
2022/07/05 01:26:01;;;;;;;18.27;2.47;;;;;;;20.89;69.98;94461.63;4980718;28;20074;-89
2022/07/05 01:28:27;;;;;;;7.22;2.20;;;;;;;21.01;69.74;94466.97;4964572;28;20034;-88
2022/07/05 01:30:53;;;;;;;15.93;2.47;;;;;;;20.73;73.06;94469.44;4964498;28;20058;-89
2022/07/05 01:33:18;;;;;;;14.23;2.22;;;;;;;20.68;72.63;94467.00;4980458;28;20034;-89
2022/07/05 01:35:44;;;;;;;6.38;1.77;;;;;;;20.74;73.06;94479.00;4980762;28;20088;-88
2022/07/05 01:38:11;;;;;;;15.77;2.13;;;;;;;20.46;77.55;94474.25;4964559;28;20100;-89
2022/07/05 01:40:36;;;;;;;8.50;1.77;;;;;;;20.70;72.94;94470.88;4964460;28;20043;-90
2022/07/05 01:43:04;;;;;;;16.35;2.17;;;;;;;20.77;71.39;94473.78;4979852;28;20034;-89
2022/07/05 01:45:44;;;;;;;17.30;2.63;;;;;;;20.72;72.45;94470.53;4980061;28;20117;-89
2022/07/05 01:48:12;;;;;;;12.57;2.22;;;;;;;20.43;75.43;94480.22;4982472;28;20033;-90
2022/07/05 01:50:49;;;;;;;18.90;2.08;;;;;;;20.58;73.73;94484.16;4980050;28;20026;-89
2022/07/05 01:53:18;;;;;;;16.13;2.50;;;;;;;20.74;68.34;94476.34;4980074;28;20053;-89
2022/07/05 01:55:44;;;;;;;19.98;2.60;;;;;;;20.25;72.48;94475.06;4979939;28;20105;-88
2022/07/05 01:58:10;;;;;;;19.25;2.45;;;;;;;20.42;72.40;94471.47;4980152;28;20116;-89
2022/07/05 02:00:46;;;;;;;13.63;2.53;;;;;;;20.53;71.61;94479.81;4980150;28;20036;-89
2022/07/05 02:03:13;;;;;;;11.68;2.72;;;;;;;20.52;70.96;94477.50;4963636;28;20447;-89
2022/07/05 02:05:39;;;;;;;11.40;2.17;;;;;;;20.41;71.60;94471.78;4980450;28;20072;-89
2022/07/05 02:08:05;;;;;;;11.05;2.25;;;;;;;20.32;72.40;94467.34;4964180;28;20395;-89
2022/07/05 02:10:30;;;;;;;11.52;2.28;;;;;;;20.25;72.21;94472.41;4980348;28;20042;-89
2022/07/05 02:12:55;;;;;;;19.25;2.67;;;;;;;20.36;69.17;94469.34;4980442;28;20038;-89
2022/07/05 02:15:21;;;;;;;23.25;2.47;;;;;;;20.56;68.25;94473.06;4984117;28;20042;-89
2022/07/05 02:17:46;;;;;;;13.35;2.47;;;;;;;20.54;67.71;94473.38;4968358;28;20034;-88
2022/07/05 02:20:12;;;;;;;35.17;3.13;;;;;;;20.47;68.87;94468.59;4983885;28;20041;-88
2022/07/05 02:22:37;;;;;;;11.50;1.90;;;;;;;20.42;70.20;94466.16;4983678;28;20446;-89
2022/07/05 02:25:03;;;;;;;11.55;1.83;;;;;;;20.47;70.44;94473.16;4983949;28;20105;-89
2022/07/05 02:27:28;;;;;;;15.18;1.92;;;;;;;20.47;70.96;94478.47;4983673;28;20065;-88
2022/07/05 02:29:54;;;;;;;13.85;1.80;;;;;;;20.20;75.69;94477.94;4983634;28;20045;-89
2022/07/05 02:32:19;;;;;;;12.45;2.08;;;;;;;20.30;73.96;94485.50;4983724;28;20034;-89
2022/07/05 02:34:45;;;;;;;15.40;1.90;;;;;;;20.47;71.01;94497.09;4983696;28;20413;-89
2022/07/05 02:37:10;;;;;;;16.83;2.10;;;;;;;20.42;71.76;94489.31;4983493;28;20022;-89
2022/07/05 02:39:35;;;;;;;16.52;2.17;;;;;;;20.47;73.60;94494.44;4983248;28;20118;-88
2022/07/05 02:42:01;;;;;;;7.78;1.95;;;;;;;20.53;73.11;94503.00;4983559;28;20423;-89
2022/07/05 02:44:27;;;;;;;17.20;2.53;;;;;;;20.63;68.03;94513.22;4983332;28;20030;-88
2022/07/05 02:46:52;;;;;;;24.95;2.33;;;;;;;20.58;68.94;94511.53;4983513;28;20022;-89
2022/07/05 02:49:18;;;;;;;16.83;2.20;;;;;;;20.59;70.61;94507.81;4967534;28;20059;-88
2022/07/05 02:52:05;;;;;;;12.57;2.30;;;;;;;20.55;72.22;94512.19;4967703;28;20035;-88
2022/07/05 02:54:30;;;;;;;9.77;2.08;;;;;;;20.25;76.24;94519.50;5000427;28;20030;-89
2022/07/05 02:56:56;;;;;;;20.27;2.45;;;;;;;20.27;79.69;94510.09;4983199;28;20453;-88
2022/07/05 02:59:21;;;;;;;17.17;2.53;;;;;;;20.28;81.27;94518.84;4983219;28;20058;-89
2022/07/05 03:01:47;;;;;;;13.45;2.40;;;;;;;20.47;81.74;94513.84;4982876;28;20351;-89
2022/07/05 03:04:12;;;;;;;6.90;2.22;;;;;;;20.51;84.64;94523.81;4983260;28;20091;-89
2022/07/05 03:06:38;;;;;;;9.93;2.38;;;;;;;20.51;87.33;94523.81;4977283;28;20030;-88
2022/07/05 03:09:04;;;;;;;7.60;1.90;;;;;;;20.55;88.15;94520.19;4965765;28;20038;-89
2022/07/05 03:11:30;;;;;;;6.40;1.77;;;;;;;20.68;87.92;94521.03;4960070;28;20035;-89
2022/07/05 03:13:56;;;;;;;9.27;2.10;;;;;;;20.65;90.77;94510.25;4982737;28;20037;-90
2022/07/05 03:16:23;;;;;;;11.45;2.05;;;;;;;20.40;95.59;94510.94;4977106;28;20034;-90
2022/07/05 03:18:49;;;;;;;13.10;2.75;;;;;;;20.46;96.28;94512.28;4963513;28;20046;-90
2022/07/05 03:21:14;;;;;;;8.77;1.95;;;;;;;20.35;99.31;94513.78;4963396;28;20034;-89
2022/07/05 03:23:40;;;;;;;12.85;2.45;;;;;;;20.33;100.00;94511.47;4963031;28;20027;-89
2022/07/05 03:26:05;;;;;;;5.88;1.73;;;;;;;20.36;100.00;94504.69;4963362;28;20436;-89
2022/07/05 03:28:31;;;;;;;10.88;2.25;;;;;;;20.32;100.00;94509.13;4980576;28;20031;-89
2022/07/05 03:30:57;;;;;;;13.13;2.05;;;;;;;20.34;100.00;94506.91;4947440;28;20030;-90
2022/07/05 03:33:24;;;;;;;11.95;2.17;;;;;;;20.34;100.00;94502.38;4976332;28;20033;-89
2022/07/05 03:35:56;;;;;;;6.68;1.80;;;;;;;20.26;100.00;94500.56;4982714;28;20395;-87
2022/07/05 03:38:21;;;;;;;9.43;2.40;;;;;;;20.29;100.00;94509.78;4982324;28;20030;-88
2022/07/05 03:40:47;;;;;;;12.63;2.45;;;;;;;20.34;100.00;94513.00;4966543;28;20105;-87
2022/07/05 03:43:12;;;;;;;6.95;2.22;;;;;;;20.39;100.00;94516.56;4966588;28;20022;-87
2022/07/05 03:45:38;;;;;;;10.88;2.20;;;;;;;20.31;100.00;94511.00;4966439;28;20081;-88
2022/07/05 03:48:03;;;;;;;9.02;2.10;;;;;;;20.20;100.00;94520.47;4966693;28;20428;-87
2022/07/05 03:50:29;;;;;;;15.18;2.10;;;;;;;20.22;100.00;94518.28;4982706;28;20030;-87
2022/07/05 03:52:57;;;;;;;7.38;1.80;;;;;;;20.26;100.00;94529.06;4981645;28;20034;-88
2022/07/05 03:55:23;;;;;;;10.38;2.13;;;;;;;20.37;100.00;94527.56;4982070;28;20044;-87
2022/07/05 03:57:48;;;;;;;11.70;2.70;;;;;;;20.16;100.00;94535.53;4982130;28;20443;-87
2022/07/05 04:00:14;;;;;;;8.63;2.00;;;;;;;20.39;100.00;94529.88;4982304;28;20022;-87
2022/07/05 04:02:41;;;;;;;8.48;2.00;;;;;;;20.53;100.00;94540.25;4965645;28;20029;-87
2022/07/05 04:05:06;;;;;;;7.55;2.25;;;;;;;20.67;100.00;94538.09;4966016;28;20027;-87
2022/07/05 04:07:32;;;;;;;10.40;2.47;;;;;;;20.30;100.00;94544.03;4966215;28;20033;-87
2022/07/05 04:09:58;;;;;;;4.72;2.10;;;;;;;20.22;100.00;94550.19;4982207;28;20468;-87
2022/07/05 04:12:23;;;;;;;7.80;1.83;;;;;;;20.41;100.00;94547.09;4966009;28;20030;-87
2022/07/05 04:14:49;;;;;;;4.18;1.73;;;;;;;20.49;100.00;94548.88;4999055;28;20041;-87
2022/07/05 04:17:14;;;;;;;8.30;2.10;;;;;;;20.47;100.00;94556.41;4999282;28;20030;-88
2022/07/05 04:19:40;;;;;;;7.28;2.50;;;;;;;20.27;100.00;94549.22;4981464;28;20427;-88
2022/07/05 04:22:05;;;;;;;7.18;1.90;;;;;;;20.36;100.00;94552.59;4965795;28;20304;-88
2022/07/05 04:24:31;;;;;;;6.15;1.83;;;;;;;19.78;100.00;94555.75;4981399;28;20108;-88
2022/07/05 04:26:56;;;;;;;10.98;2.45;;;;;;;19.86;100.00;94554.13;4981638;28;20486;-88
2022/07/05 04:29:22;;;;;;;9.85;2.47;;;;;;;20.13;100.00;94558.25;4981522;28;20022;-88
2022/07/05 04:31:47;;;;;;;8.63;2.30;;;;;;;20.15;100.00;94552.59;4965592;28;20022;-88
2022/07/05 04:34:13;;;;;;;13.40;2.65;;;;;;;20.20;100.00;94545.19;4965268;28;20026;-87
2022/07/05 04:36:40;;;;;;;5.35;2.08;;;;;;;20.37;100.00;94546.19;4980735;28;20117;-88
2022/07/05 04:39:06;;;;;;;5.45;2.10;;;;;;;20.14;100.00;94538.53;4981704;28;20053;-87
2022/07/05 04:41:32;;;;;;;11.73;2.88;;;;;;;20.24;100.00;94539.25;4981079;28;20053;-86
2022/07/05 04:43:57;;;;;;;8.43;2.50;;;;;;;20.32;100.00;94543.69;4980863;28;20057;-88
2022/07/05 04:46:22;;;;;;;9.20;2.22;;;;;;;20.85;100.00;94537.97;4981491;28;20027;-87
2022/07/05 04:48:48;;;;;;;6.47;2.05;;;;;;;20.74;100.00;94535.66;4965250;28;20033;-87
2022/07/05 04:51:14;;;;;;;7.70;2.10;;;;;;;20.90;100.00;94529.75;4981452;28;20076;-87
2022/07/05 04:53:39;;;;;;;6.65;2.28;;;;;;;20.94;100.00;94527.97;4980933;28;20331;-87
2022/07/05 04:56:05;;;;;;;7.32;2.20;;;;;;;20.48;100.00;94522.59;4981219;28;20435;-87
2022/07/05 04:58:34;;;;;;;4.93;2.40;;;;;;;20.13;100.00;94528.97;4998118;28;20323;-87
2022/07/05 05:08:20;;;;;;;7.60;2.17;;;;;;;20.74;100.00;94535.66;4899968;29;20020;-88
2022/07/05 05:17:16;;;;;;;7.55;1.98;;;;;;;21.13;100.00;94529.38;4881402;29;20150;-87
2022/07/05 05:19:41;;;;;;;5.32;1.77;;;;;;;21.25;100.00;94529.38;4903433;29;20043;-87
2022/07/05 05:22:07;;;;;;;5.65;1.88;;;;;;;21.22;100.00;94531.94;4903361;29;20032;-88
2022/07/05 05:24:34;;;;;;;7.13;2.00;;;;;;;21.16;100.00;94531.38;4921089;28;20136;-88
2022/07/05 05:27:20;;;;;;;6.03;1.95;;;;;;;21.24;100.00;94533.16;4980179;28;20342;-90
2022/07/05 05:29:45;;;;;;;10.80;2.17;;;;;;;21.56;100.00;94530.75;4979603;28;20088;-89
2022/07/05 05:32:23;;;;;;;10.27;2.45;;;;;;;21.26;100.00;94530.16;4980471;28;20375;-89
2022/07/05 05:34:48;;;;;;;4.53;2.20;;;;;;;21.28;100.00;94525.25;4979993;28;20041;-89
2022/07/05 05:37:14;;;;;;;7.57;2.15;;;;;;;21.19;100.00;94528.03;4998006;28;20027;-88
2022/07/05 05:39:39;;;;;;;10.73;1.90;;;;;;;21.23;100.00;94530.81;4996746;28;20030;-89
2022/07/05 05:42:05;;;;;;;10.63;1.88;;;;;;;21.52;100.00;94529.84;4980533;28;20316;-89
2022/07/05 05:44:34;;;;;;;9.43;2.15;;;;;;;21.74;100.00;94530.53;4979927;28;20038;-88
2022/07/05 05:47:06;;;;;;;7.78;1.75;;;;;;;22.11;100.00;94527.81;4963231;28;20105;-89
2022/07/05 05:53:08;;;;;;;17.33;2.38;;;;;;;21.98;100.00;94529.72;4952901;28;20031;-87
2022/07/05 05:56:38;;;;;;;9.10;1.92;;;;;;;21.69;100.00;94520.88;4966792;28;20506;-89
2022/07/05 05:59:03;;;;;;;10.88;2.00;;;;;;;21.99;100.00;94525.19;4976525;28;20034;-88
2022/07/05 06:01:29;;;;;;;7.10;1.90;;;;;;;22.30;100.00;94529.09;4979868;28;20089;-89
2022/07/05 06:03:55;;;;;;;9.70;2.38;;;;;;;22.79;100.00;94528.16;4997179;28;20030;-88
2022/07/05 06:06:24;;;;;;;8.40;2.25;;;;;;;22.88;100.00;94525.34;4980011;28;20027;-88
2022/07/05 06:12:19;;;;;;;6.22;1.70;;;;;;;23.00;100.00;94524.47;4996915;28;20041;-88
2022/07/05 06:14:44;;;;;;;9.77;2.13;;;;;;;23.10;100.00;94515.97;4980953;28;20022;-88
2022/07/05 06:17:25;;;;;;;9.02;2.20;;;;;;;23.39;100.00;94521.28;4997772;28;20443;-88
2022/07/05 06:19:50;;;;;;;11.80;2.28;;;;;;;23.52;97.45;94528.06;4996983;28;20026;-88
2022/07/05 06:22:18;;;;;;;9.90;2.00;;;;;;;23.62;95.78;94521.41;4963911;28;20041;-89
2022/07/05 06:24:43;;;;;;;16.52;2.33;;;;;;;22.92;100.00;94523.53;4964125;28;20026;-89
2022/07/05 06:27:09;;;;;;;19.35;2.78;;;;;;;22.66;100.00;94513.31;4980176;28;20117;-89
2022/07/05 06:30:52;;;;;;;;;;;;;;;;;;;;;
2022/07/05 06:37:00;;;;;;;8.55;2.30;;;;;;;23.07;100.00;94524.66;4882250;29;20063;-87
2022/07/05 06:39:25;;;;;;;20.50;2.97;;;;;;;23.31;100.00;94528.31;4921280;29;20032;-89
2022/07/05 06:42:03;;;;;;;13.93;2.65;;;;;;;23.28;100.00;94527.13;4969256;28;20455;-89
2022/07/05 06:44:31;;;;;;;13.57;2.60;;;;;;;23.14;100.00;94524.06;4979247;28;20042;-88
2022/07/05 06:46:56;;;;;;;11.48;1.95;;;;;;;23.33;100.00;94522.63;4979725;28;20042;-88
2022/07/05 06:49:22;;;;;;;8.20;1.95;;;;;;;23.93;94.02;94532.41;4997667;28;20069;-88
2022/07/05 06:52:07;;;;;;;12.48;2.10;;;;;;;24.04;90.43;94525.41;4996875;28;20128;-89
2022/07/05 06:59:12;;;;;;;8.10;1.70;;;;;;;24.41;86.59;94540.31;4955756;29;20049;-89
2022/07/05 07:01:51;;;;;;;15.98;2.83;;;;;;;23.15;100.00;94539.75;4974793;28;20462;-89
2022/07/05 07:11:22;;;;;;;14.88;2.15;;;;;;;24.65;91.49;94530.44;4980670;28;20066;-88
2022/07/05 07:17:36;;;;;;;7.50;2.13;;;;;;;24.87;100.00;94538.91;4933010;28;20066;-88
2022/07/05 07:20:25;;;;;;;;;;;;;;;;;;;;;
2022/07/05 07:22:51;;;;;;;14.02;2.67;;;;;;;25.18;95.06;94524.53;4983734;28;20036;-88
2022/07/05 07:25:36;;;;;;;;;;;;;;;;;;;;;
2022/07/05 07:28:11;;;;;;;;;;;;;;;;;;;;;
2022/07/05 07:34:14;;;;;;;14.30;2.25;;;;;;;25.67;92.06;94535.66;4920457;29;20047;-88
2022/07/05 07:36:42;;;;;;;10.65;2.17;;;;;;;25.92;94.52;94536.03;4905750;29;20044;-89
2022/07/05 07:39:43;;;;;;;9.18;2.45;;;;;;;25.83;91.47;94540.88;4920943;29;20400;-88
2022/07/05 07:42:12;;;;;;;8.98;2.20;;;;;;;25.66;87.96;94542.16;4983455;28;20046;-88
2022/07/05 07:48:06;;;;;;;13.85;2.22;;;;;;;26.28;83.99;94549.19;4864137;29;20128;-88
2022/07/05 07:50:31;;;;;;;8.57;1.80;;;;;;;26.44;79.55;94532.13;4894646;29;20047;-89
2022/07/05 07:52:56;;;;;;;14.25;2.28;;;;;;;26.29;77.08;94537.31;4982440;28;20047;-88
2022/07/05 07:59:05;;;;;;;12.32;2.65;;;;;;;26.58;86.83;94534.19;4999255;28;20037;-88
2022/07/05 08:02:14;;;;;;;10.90;2.10;;;;;;;26.78;73.88;94532.91;4981285;28;20506;-89
2022/07/05 08:04:39;;;;;;;9.60;2.15;;;;;;;26.76;68.13;94537.09;4917464;29;20048;-88
2022/07/05 08:07:05;;;;;;;13.38;2.20;;;;;;;26.74;67.40;94534.00;4987120;28;20109;-89
2022/07/05 08:09:31;;;;;;;14.43;2.13;;;;;;;26.81;68.85;94534.06;4999787;28;20033;-89
2022/07/05 08:12:35;;;;;;;6.68;1.88;;;;;;;26.98;71.54;94548.09;4998310;28;20038;-88
2022/07/05 08:15:01;;;;;;;9.50;1.95;;;;;;;26.86;73.43;94551.78;4971965;28;20038;-88
2022/07/05 08:17:26;;;;;;;10.10;2.00;;;;;;;26.83;72.12;94550.63;4981966;28;20045;-88
2022/07/05 08:23:14;;;;;;;10.63;2.28;;;;;;;27.03;75.83;94550.44;4996558;28;20041;-88
2022/07/05 08:25:39;;;;;;;6.07;2.20;;;;;;;27.23;77.99;94553.72;4998631;28;20030;-88
2022/07/05 08:28:42;;;;;;;8.10;2.10;;;;;;;26.74;76.37;94553.56;4998940;28;20045;-87
2022/07/05 08:31:25;;;;;;;8.73;2.47;;;;;;;26.80;77.89;94546.75;4998966;28;20033;-88
2022/07/05 08:33:51;;;;;;;9.85;4.15;;;;;;;27.00;83.37;94554.63;4974317;28;20105;-91
2022/07/05 08:36:16;;;;;;;9.43;2.60;;;;;;;27.08;81.10;94552.78;5004170;28;20038;-89
2022/07/05 08:38:42;;;;;;;9.40;1.77;;;;;;;27.27;81.04;94559.13;5013337;28;20064;-89
2022/07/05 08:41:09;;;;;;;5.68;2.05;;;;;;;27.18;81.53;94557.50;4981597;28;20073;-89
2022/07/05 08:43:37;;;;;;;3.63;1.92;;;;;;;27.46;77.95;94558.91;4980467;28;20042;-90
2022/07/05 08:46:03;;;;;;;7.75;2.40;;;;;;;27.24;78.88;94566.03;4981216;28;20034;-90
2022/07/05 08:48:49;;;;;;;6.35;2.20;;;;;;;27.11;84.43;94557.44;4998050;28;20066;-88
2022/07/05 08:51:23;;;;;;;8.07;2.10;;;;;;;27.59;83.74;94561.34;4970720;28;20097;-89
2022/07/05 08:53:50;;;;;;;8.35;2.15;;;;;;;27.51;78.61;94558.56;4961563;28;20159;-88
2022/07/05 08:56:58;;;;;;;5.38;2.03;;;;;;;27.21;78.46;94561.38;4961784;28;20035;-88
2022/07/05 08:59:23;;;;;;;6.82;2.22;;;;;;;27.10;73.28;94558.56;4959053;28;20035;-89
2022/07/05 09:01:49;;;;;;;7.80;1.92;;;;;;;27.29;74.72;94562.97;4966633;28;20353;-89
2022/07/05 09:04:41;;;;;;;13.82;2.38;;;;;;;27.20;74.80;94559.84;4974037;28;20038;-89
2022/07/05 09:07:07;;;;;;;10.18;2.25;;;;;;;27.02;76.52;94560.41;4980730;28;20030;-88
2022/07/05 09:09:34;;;;;;;5.60;2.00;;;;;;;27.18;79.71;94564.78;4980889;28;20342;-88
2022/07/05 09:11:59;;;;;;;7.35;2.03;;;;;;;27.24;73.93;94560.63;4981101;28;20056;-88
2022/07/05 09:14:26;;;;;;;5.22;1.92;;;;;;;27.40;74.23;94557.69;4980294;28;20038;-88
2022/07/05 09:16:51;;;;;;;3.95;2.00;;;;;;;27.49;73.78;94560.09;4997948;28;20026;-91
2022/07/05 09:19:18;;;;;;;13.23;1.98;;;;;;;27.34;75.28;94559.97;4997856;28;20030;-90
2022/07/05 09:21:44;;;;;;;4.15;1.95;;;;;;;27.38;74.58;94562.66;4997492;28;20458;-90
2022/07/05 09:24:10;;;;;;;9.57;1.98;;;;;;;27.64;71.71;94550.22;4997250;28;20026;-90
2022/07/05 09:26:41;;;;;;;6.60;2.00;;;;;;;27.76;75.10;94552.63;4997444;28;20026;-89
2022/07/05 09:29:11;;;;;;;6.15;2.10;;;;;;;27.58;68.61;94549.03;4980787;28;20049;-89
2022/07/05 09:31:38;;;;;;;6.75;2.08;;;;;;;27.63;67.90;94540.63;4980548;28;20022;-86
2022/07/05 09:34:15;;;;;;;9.45;2.00;;;;;;;27.68;69.08;94553.72;4997450;28;20040;-86
2022/07/05 09:36:51;;;;;;;3.97;1.73;;;;;;;28.12;69.75;94559.38;4997526;28;20041;-86
2022/07/05 09:39:18;;;;;;;6.47;2.00;;;;;;;28.40;69.39;94549.94;4997023;28;20030;-87
2022/07/05 09:41:44;;;;;;;7.60;1.75;;;;;;;28.20;68.28;94556.41;4979971;28;20436;-86
2022/07/05 09:44:09;;;;;;;3.55;1.75;;;;;;;28.17;66.99;94556.38;4979766;28;20085;-86
2022/07/05 09:46:35;;;;;;;7.22;2.00;;;;;;;28.33;67.61;94562.22;4997494;28;20030;-86
2022/07/05 09:49:01;;;;;;;7.95;2.10;;;;;;;28.36;62.33;94555.31;4979685;28;20030;-86
2022/07/05 09:51:26;;;;;;;5.20;1.63;;;;;;;28.57;61.99;94551.94;4997018;28;20085;-86
2022/07/05 09:53:54;;;;;;;2.90;1.73;;;;;;;28.43;60.37;94549.19;4996894;28;20026;-87
2022/07/05 09:56:20;;;;;;;6.85;1.65;;;;;;;28.34;61.67;94550.31;4980163;28;20042;-87
2022/07/05 09:58:46;;;;;;;4.15;1.50;;;;;;;28.89;62.73;94548.59;4997634;28;20038;-86
2022/07/05 10:01:28;;;;;;;5.28;1.45;;;;;;;28.95;62.09;94550.91;4980118;28;20030;-86
2022/07/05 10:03:54;;;;;;;3.97;2.00;;;;;;;28.78;57.97;94551.25;4997196;28;20117;-89
2022/07/05 10:06:22;;;;;;;8.25;1.75;;;;;;;28.26;56.91;94551.41;4979963;28;20039;-89
2022/07/05 10:08:48;;;;;;;14.98;2.00;;;;;;;28.85;59.30;94557.84;4980231;28;20073;-90
2022/07/05 10:11:21;;;;;;;5.07;1.60;;;;;;;28.73;59.45;94557.00;4979741;28;20130;-90
2022/07/05 10:17:01;;;;;;;4.95;1.60;;;;;;;28.19;57.93;94551.38;4972511;28;20436;-91
2022/07/05 10:19:33;;;;;;;5.97;1.48;;;;;;;28.32;59.24;94549.13;4980019;28;20070;-89
2022/07/05 10:21:59;;;;;;;4.15;1.40;;;;;;;28.39;56.67;94554.56;4980381;28;20116;-89
2022/07/05 10:24:24;;;;;;;4.03;1.42;;;;;;;28.45;57.41;94549.59;4979798;28;20113;-90
2022/07/05 10:26:50;;;;;;;7.72;1.60;;;;;;;28.60;57.42;94547.72;4980176;28;20084;-88
2022/07/05 10:29:15;;;;;;;3.53;1.50;;;;;;;29.02;58.03;94549.00;4980141;28;20038;-90
2022/07/05 10:31:42;;;;;;;6.18;1.55;;;;;;;29.04;56.14;94545.94;4963634;28;20451;-90
2022/07/05 10:34:07;;;;;;;5.50;1.63;;;;;;;28.11;54.53;94536.28;4980525;28;20073;-89
2022/07/05 10:36:34;;;;;;;6.18;1.90;;;;;;;28.82;54.88;94535.09;4967490;28;20078;-88
2022/07/05 10:39:01;;;;;;;10.95;1.65;;;;;;;29.39;55.90;94536.34;4984430;28;20038;-89
2022/07/05 10:41:28;;;;;;;8.63;1.67;;;;;;;29.47;54.56;94532.53;4967626;28;20034;-89
2022/07/05 10:43:55;;;;;;;7.85;1.80;;;;;;;29.80;55.53;94527.09;4968004;28;20085;-89
2022/07/05 10:50:58;;;;;;;11.23;1.75;;;;;;;30.35;54.93;94527.00;4936276;29;20468;-90
2022/07/05 10:53:36;;;;;;;8.30;1.63;;;;;;;29.46;53.57;94530.19;4921721;28;20399;-88
2022/07/05 10:56:07;;;;;;;17.38;1.70;;;;;;;29.98;53.41;94524.34;4983260;28;20042;-88
2022/07/05 10:58:34;;;;;;;4.95;1.60;;;;;;;29.67;53.03;94528.66;5000476;28;20049;-89
2022/07/05 11:08:50;;;;;;;;;;;;;;;;;;;;;
2022/07/05 11:39:20;;;;;;;7.75;1.80;;;;;;;29.76;53.64;94500.09;4737923;30;20533;-92
2022/07/05 11:53:03;;;;;;;9.45;2.10;;;;;;;30.05;50.74;94507.38;4755968;29;20082;-89
2022/07/05 11:55:29;;;;;;;6.82;1.65;;;;;;;30.30;52.03;94496.53;4803183;29;20065;-89
2022/07/05 11:57:57;;;;;;;9.32;3.70;;;;;;;30.40;50.94;94496.84;4796734;29;20062;-89
2022/07/05 12:00:30;;;;;;;12.48;3.30;;;;;;;30.88;51.36;94493.56;4915417;28;20049;-89
2022/07/05 12:02:55;;;;;;;5.88;1.70;;;;;;;30.72;50.91;94495.97;4962633;28;20069;-89
2022/07/05 12:05:21;;;;;;;5.95;2.15;;;;;;;30.90;51.95;94493.13;4962514;28;20058;-90
2022/07/05 12:07:51;;;;;;;9.15;1.58;;;;;;;30.55;50.56;94503.72;4962254;28;20129;-89
2022/07/05 12:13:06;;;;;;;7.32;1.85;;;;;;;30.95;49.77;94489.25;4979150;28;20042;-88
2022/07/05 12:15:32;;;;;;;11.18;1.73;;;;;;;30.74;51.68;94488.22;4962326;28;20042;-89
2022/07/05 12:18:03;;;;;;;7.13;1.95;;;;;;;30.53;51.13;94495.25;4946653;28;20419;-90
2022/07/05 12:20:29;;;;;;;7.95;1.48;;;;;;;30.65;50.48;94480.56;4962614;28;20031;-89
2022/07/05 12:22:54;;;;;;;7.88;1.60;;;;;;;30.86;49.80;94482.38;4962240;28;20030;-89
2022/07/05 12:25:21;;;;;;;6.45;1.75;;;;;;;30.86;49.07;94487.00;4946474;28;20097;-89
2022/07/05 12:27:48;;;;;;;10.70;1.90;;;;;;;31.01;50.44;94477.63;4979026;28;20084;-90
2022/07/05 12:30:15;;;;;;;5.82;1.70;;;;;;;30.25;50.31;94472.59;4981705;28;20121;-88
2022/07/05 12:33:00;;;;;;;7.30;1.60;;;;;;;30.75;51.94;94478.94;4981147;28;20030;-90
2022/07/05 12:35:39;;;;;;;10.25;2.88;;;;;;;30.38;50.47;94470.25;4998808;28;20157;-91
2022/07/05 12:38:18;;;;;;;8.98;1.88;;;;;;;30.28;50.54;94476.44;4981500;28;20313;-92
2022/07/05 12:40:45;;;;;;;12.15;2.28;;;;;;;30.66;50.21;94468.56;4981553;28;20133;-90
2022/07/05 12:43:13;;;;;;;14.88;1.83;;;;;;;30.99;51.99;94466.44;4998306;28;20088;-89
2022/07/05 12:45:40;;;;;;;12.40;1.85;;;;;;;30.80;51.11;94481.22;4981616;28;20343;-91
2022/07/05 12:48:07;;;;;;;10.23;1.85;;;;;;;31.17;48.97;94470.94;4981046;28;20436;-90
2022/07/05 12:50:49;;;;;;;4.97;1.70;;;;;;;31.53;50.19;94470.66;4998936;28;20030;-92
2022/07/05 12:58:51;;;;;;;6.38;1.95;;;;;;;31.07;49.28;94464.44;4998111;28;20105;-92
2022/07/05 13:01:26;;;;;;;7.07;1.67;;;;;;;31.04;48.92;94454.41;4980761;28;20030;-91
2022/07/05 13:03:58;;;;;;;14.88;2.00;;;;;;;30.56;49.48;94459.34;4998034;28;20030;-91
2022/07/05 13:06:38;;;;;;;8.02;1.67;;;;;;;30.65;50.11;94456.22;4998050;28;20023;-93
2022/07/05 13:09:03;;;;;;;9.63;1.70;;;;;;;31.01;48.36;94457.94;4996712;28;20030;-92
2022/07/05 13:11:30;;;;;;;6.95;2.00;;;;;;;31.66;48.63;94459.34;4980624;28;20391;-90
2022/07/05 13:13:55;;;;;;;7.20;1.75;;;;;;;32.00;47.00;94458.63;4980707;28;20042;-90
2022/07/05 13:16:21;;;;;;;9.70;2.17;;;;;;;31.93;45.86;94454.03;4986882;28;20109;-91
2022/07/05 13:18:47;;;;;;;8.45;1.88;;;;;;;31.55;46.44;94459.41;4978392;28;20034;-93
2022/07/05 13:21:12;;;;;;;6.60;1.88;;;;;;;32.01;46.55;94455.50;4978294;28;20424;-89
2022/07/05 13:23:38;;;;;;;6.75;2.00;;;;;;;31.71;46.73;94448.84;4961395;28;20502;-92
2022/07/05 13:26:03;;;;;;;7.60;1.85;;;;;;;31.88;47.18;94449.06;4960708;28;20027;-90
2022/07/05 13:28:28;;;;;;;10.18;2.10;;;;;;;31.60;47.48;94442.75;4960986;28;20026;-93
2022/07/05 13:30:54;;;;;;;5.63;1.67;;;;;;;31.47;46.89;94441.72;4960877;28;20380;-91
2022/07/05 13:33:19;;;;;;;10.32;1.83;;;;;;;31.63;47.89;94441.16;4977966;28;20064;-92
2022/07/05 13:35:46;;;;;;;6.47;1.88;;;;;;;31.43;47.92;94441.75;4961021;28;20026;-95
2022/07/05 13:38:17;;;;;;;9.40;2.03;;;;;;;31.27;47.87;94440.34;4962302;28;20440;-95
2022/07/05 13:40:42;;;;;;;10.55;1.80;;;;;;;31.90;46.59;94443.25;4948119;28;20030;-94
2022/07/05 13:43:08;;;;;;;8.68;1.92;;;;;;;31.94;46.88;94447.44;4947208;28;20317;-93
2022/07/05 13:45:34;;;;;;;9.65;1.70;;;;;;;31.96;46.70;94447.81;4978317;28;20418;-94
2022/07/05 13:47:59;;;;;;;6.38;1.90;;;;;;;32.43;46.54;94460.84;4965148;28;20069;-91
2022/07/05 13:50:31;;;;;;;6.93;1.95;;;;;;;32.26;45.51;94451.72;4997619;28;20030;-90
2022/07/05 13:52:57;;;;;;;5.65;1.63;;;;;;;32.12;45.45;94460.00;4995985;28;20395;-90
2022/07/05 13:55:22;;;;;;;6.55;1.63;;;;;;;32.61;45.57;94462.53;4997014;28;20043;-91
2022/07/05 13:57:48;;;;;;;10.30;1.70;;;;;;;32.83;45.45;94467.66;4980139;28;20034;-90
2022/07/05 14:00:13;;;;;;;8.77;1.90;;;;;;;31.66;46.49;94449.25;4979806;28;20037;-90
2022/07/05 14:02:39;;;;;;;10.32;1.90;;;;;;;31.62;46.62;94456.66;4960365;28;20033;-89
2022/07/05 14:05:05;;;;;;;7.97;1.85;;;;;;;32.69;44.94;94457.78;4960977;28;20045;-90
2022/07/05 14:07:30;;;;;;;10.73;1.90;;;;;;;33.53;44.66;94458.09;4997304;28;20053;-91
2022/07/05 14:09:56;;;;;;;9.15;2.03;;;;;;;34.01;43.50;94441.72;4982019;28;20034;-91
2022/07/05 14:12:21;;;;;;;3.75;1.50;;;;;;;33.74;44.36;94448.00;5000982;28;20061;-90
2022/07/05 14:14:47;;;;;;;7.05;2.05;;;;;;;31.93;45.44;94448.63;4970032;28;20030;-89
2022/07/05 14:17:12;;;;;;;7.55;2.03;;;;;;;32.08;46.03;94437.63;4980651;28;20038;-91
2022/07/05 14:19:38;;;;;;;6.90;2.08;;;;;;;31.71;47.33;94438.00;4981843;28;20039;-91
2022/07/05 14:22:04;;;;;;;5.25;2.17;;;;;;;30.61;49.63;94439.22;4948024;28;20031;-90
2022/07/05 14:24:29;;;;;;;10.30;2.00;;;;;;;31.21;47.13;94441.16;4980223;28;20037;-91
2022/07/05 14:26:54;;;;;;;7.38;1.58;;;;;;;32.33;45.90;94433.84;4977886;28;20037;-91
2022/07/05 14:29:20;;;;;;;8.63;1.77;;;;;;;33.65;44.30;94443.13;4983611;28;20030;-91
2022/07/05 14:31:48;;;;;;;13.23;2.42;;;;;;;35.03;41.50;94445.81;5000789;28;20034;-91